Terminal Aerodrome Forecast
Issued by NWS

Home | Current Version | Previous Version | Text Only | Print | Product List | Glossary Off
Versions: 1 2 3 4 5 6 7 8 9 10 11 12 13 14 15 16 17 18 19 20 21 22 23 24 25 26

000
FTUS43 KLOT 170901 AAA
TAFDPA
TAF AMD
KDPA 170901Z 1709/1806 20012KT P6SM VCSH SCT025 BKN050
      TEMPO 1710/1714 4SM SHRA BR BKN012
     FM171400 22012G18KT P6SM SCT020 BKN035
     FM171700 24018G26KT P6SM BKN050
     FM180100 26012G18KT P6SM BKN050=

USA.gov is the U.S. government's official web portal to all federal, state and local government web resources and services.